createdAt,value
2019-03-29T00:00:17.391Z,0.00
2019-03-29T00:01:17.373Z,0.00
2019-03-29T00:02:17.369Z,0.00
2019-03-29T00:03:17.349Z,0.00
2019-03-29T00:04:17.392Z,0.00
2019-03-29T00:05:17.331Z,0.00
2019-03-29T00:06:17.320Z,0.00
2019-03-29T00:07:17.310Z,0.00
2019-03-29T00:08:17.297Z,0.00
2019-03-29T00:09:17.335Z,0.00
2019-03-29T00:10:17.271Z,0.00
2019-03-29T00:11:17.259Z,0.00
2019-03-29T00:12:17.249Z,0.00
2019-03-29T00:13:17.242Z,0.00
2019-03-29T00:14:17.280Z,0.00
2019-03-29T00:15:17.220Z,0.00
2019-03-29T00:16:17.208Z,0.00
2019-03-29T00:17:17.965Z,0.00
2019-03-29T00:18:17.191Z,0.00
2019-03-29T00:19:17.545Z,0.00
2019-03-29T00:20:17.160Z,0.00
2019-03-29T00:21:17.147Z,0.00
2019-03-29T00:22:17.140Z,0.00
2019-03-29T00:23:18.031Z,0.00
2019-03-29T00:24:17.170Z,0.00
2019-03-29T00:25:17.116Z,0.00
2019-03-29T00:26:17.095Z,0.00
2019-03-29T00:27:17.082Z,0.00
2019-03-29T00:28:17.071Z,0.00
2019-03-29T00:29:17.113Z,0.00
2019-03-29T00:30:17.109Z,0.00
2019-03-29T00:31:17.045Z,0.00
2019-03-29T00:32:17.030Z,0.00
2019-03-29T00:33:17.142Z,0.00
2019-03-29T00:34:17.009Z,0.00
2019-03-29T00:35:16.991Z,0.00
2019-03-29T00:36:18.023Z,0.00
2019-03-29T00:37:17.929Z,0.00
2019-03-29T00:38:16.968Z,0.00
2019-03-29T00:39:16.950Z,0.00
2019-03-29T00:40:16.941Z,0.00
2019-03-29T00:41:16.925Z,0.00
2019-03-29T00:42:17.150Z,0.00
2019-03-29T00:43:16.908Z,0.00
2019-03-29T00:44:16.891Z,0.00
2019-03-29T00:45:16.893Z,0.00
2019-03-29T00:46:16.925Z,0.00
2019-03-29T00:47:16.913Z,0.00
2019-03-29T00:48:16.847Z,0.00
2019-03-29T00:49:16.839Z,0.00
2019-03-29T00:50:16.829Z,0.00
2019-03-29T00:51:16.818Z,0.00
2019-03-29T00:52:16.942Z,0.00
2019-03-29T00:53:16.791Z,0.00
2019-03-29T00:54:16.793Z,0.00
2019-03-29T00:55:16.775Z,0.00
2019-03-29T00:56:16.757Z,0.00
2019-03-29T00:57:16.749Z,0.00
2019-03-29T00:58:16.769Z,0.00
2019-03-29T00:59:16.730Z,0.00
2019-03-29T01:00:16.717Z,0.00
2019-03-29T01:01:16.710Z,0.00
2019-03-29T01:02:16.693Z,0.00
2019-03-29T01:03:16.735Z,0.00
2019-03-29T01:04:16.671Z,0.00
2019-03-29T01:05:16.666Z,0.00
2019-03-29T01:06:16.649Z,0.00
2019-03-29T01:07:16.642Z,0.00
2019-03-29T01:08:16.681Z,0.00
2019-03-29T01:09:16.638Z,0.00
2019-03-29T01:10:16.713Z,0.00
2019-03-29T01:11:16.593Z,0.00
2019-03-29T01:12:16.585Z,0.00
2019-03-29T01:13:16.571Z,0.00
2019-03-29T01:14:16.938Z,0.00
2019-03-29T01:15:16.550Z,0.00
2019-03-29T01:16:16.541Z,0.00
2019-03-29T01:17:16.533Z,0.00
2019-03-29T01:18:16.529Z,0.00
2019-03-29T01:19:16.508Z,0.00
2019-03-29T01:20:16.550Z,0.00
2019-03-29T01:21:16.484Z,0.00
2019-03-29T01:22:16.479Z,0.00
2019-03-29T01:23:16.461Z,0.00
2019-03-29T01:24:16.465Z,0.00
2019-03-29T01:25:16.447Z,0.00
2019-03-29T01:26:16.526Z,0.00
2019-03-29T01:27:16.424Z,0.00
2019-03-29T01:28:16.415Z,0.00
2019-03-29T01:29:16.410Z,0.00
2019-03-29T01:30:16.389Z,0.00
2019-03-29T01:31:16.378Z,0.00
2019-03-29T01:32:16.418Z,0.00
2019-03-29T01:33:16.358Z,0.00
2019-03-29T01:34:17.106Z,0.00
2019-03-29T01:35:16.347Z,0.00
2019-03-29T01:36:16.374Z,0.00
2019-03-29T01:37:16.307Z,0.00
2019-03-29T01:38:22.284Z,0.00
2019-03-29T01:39:17.289Z,0.00
2019-03-29T01:40:16.328Z,0.00
2019-03-29T01:41:16.298Z,0.00
2019-03-29T01:42:16.259Z,0.00
2019-03-29T01:43:16.246Z,0.00
2019-03-29T01:44:16.236Z,0.00
2019-03-29T01:45:16.318Z,0.00
2019-03-29T01:46:16.215Z,0.00
2019-03-29T01:47:16.199Z,0.00
2019-03-29T01:48:16.195Z,0.00
2019-03-29T01:49:16.268Z,0.00
2019-03-29T01:50:16.165Z,0.00
2019-03-29T01:51:16.225Z,0.00
2019-03-29T01:52:16.143Z,0.00
2019-03-29T01:53:16.139Z,0.00
2019-03-29T01:54:16.121Z,0.00
2019-03-29T01:55:16.112Z,0.00
2019-03-29T01:56:16.104Z,0.00
2019-03-29T01:57:16.107Z,0.00
2019-03-29T01:58:16.082Z,0.00
2019-03-29T01:59:16.885Z,0.00
2019-03-29T02:00:16.080Z,0.00
2019-03-29T02:01:16.052Z,0.00
2019-03-29T02:02:16.096Z,0.00
2019-03-29T02:03:16.035Z,0.00
2019-03-29T02:04:16.048Z,0.00
2019-03-29T02:05:16.006Z,0.00
2019-03-29T02:06:15.996Z,0.00
2019-03-29T02:07:15.985Z,0.00
2019-03-29T02:08:16.022Z,0.00
2019-03-29T02:09:15.975Z,0.00
2019-03-29T02:10:15.962Z,0.00
2019-03-29T02:11:15.935Z,0.00
2019-03-29T02:12:15.975Z,0.00
2019-03-29T02:13:15.914Z,0.00
2019-03-29T02:14:15.902Z,0.00
2019-03-29T02:15:15.895Z,0.00
2019-03-29T02:16:15.884Z,0.00
2019-03-29T02:17:15.870Z,0.00
2019-03-29T02:18:15.911Z,0.00
2019-03-29T02:19:15.852Z,0.00
2019-03-29T02:20:15.836Z,0.00
2019-03-29T02:21:16.918Z,0.00
2019-03-29T02:22:15.815Z,0.00
2019-03-29T02:23:15.805Z,0.00
2019-03-29T02:24:15.845Z,0.00
2019-03-29T02:25:16.117Z,0.00
2019-03-29T02:26:15.769Z,0.00
2019-03-29T02:27:15.798Z,0.00
2019-03-29T02:28:15.801Z,0.00
2019-03-29T02:29:15.746Z,0.00
2019-03-29T02:30:15.730Z,0.00
2019-03-29T02:31:15.715Z,0.00
2019-03-29T02:32:15.718Z,0.00
2019-03-29T02:33:15.764Z,0.00
2019-03-29T02:34:16.012Z,0.00
2019-03-29T02:35:15.682Z,0.00
2019-03-29T02:36:15.662Z,0.00
2019-03-29T02:37:15.648Z,0.00
2019-03-29T02:38:15.639Z,0.00
2019-03-29T02:39:15.684Z,0.00
2019-03-29T02:40:15.670Z,0.00
2019-03-29T02:41:15.609Z,0.00
2019-03-29T02:42:15.594Z,0.00
2019-03-29T02:43:15.582Z,0.00
2019-03-29T02:44:15.626Z,0.00
2019-03-29T02:45:15.562Z,0.00
2019-03-29T02:46:15.549Z,0.00
2019-03-29T02:47:15.545Z,0.00
2019-03-29T02:48:16.738Z,0.00
2019-03-29T02:49:15.517Z,0.00
2019-03-29T02:50:15.556Z,0.00
2019-03-29T02:51:15.497Z,0.00
2019-03-29T02:52:15.481Z,0.00
2019-03-29T02:53:15.477Z,0.00
2019-03-29T02:54:15.465Z,0.00
2019-03-29T02:55:15.449Z,0.00
2019-03-29T02:56:15.496Z,0.00
2019-03-29T02:57:15.436Z,0.00
2019-03-29T02:58:15.417Z,0.00
2019-03-29T02:59:15.412Z,0.00
2019-03-29T03:00:15.448Z,0.00
2019-03-29T03:01:15.394Z,0.00
2019-03-29T03:02:15.371Z,0.00
2019-03-29T03:03:15.367Z,0.00
2019-03-29T03:04:15.355Z,0.00
2019-03-29T03:05:15.420Z,0.00
2019-03-29T03:06:15.336Z,0.00
2019-03-29T03:07:15.323Z,0.00
2019-03-29T03:08:15.316Z,0.00
2019-03-29T03:09:15.300Z,0.00
2019-03-29T03:10:15.302Z,0.00
2019-03-29T03:11:15.346Z,0.00
2019-03-29T03:12:15.265Z,0.00
2019-03-29T03:13:15.255Z,0.00
2019-03-29T03:14:15.240Z,0.00
2019-03-29T03:15:15.235Z,0.00
2019-03-29T03:16:15.215Z,0.00
2019-03-29T03:17:15.219Z,0.00
2019-03-29T03:18:15.201Z,0.00
2019-03-29T03:19:15.182Z,0.00
2019-03-29T03:20:15.882Z,0.00
2019-03-29T03:21:15.167Z,0.00
2019-03-29T03:22:15.203Z,0.00
2019-03-29T03:23:15.139Z,0.00
2019-03-29T03:24:15.132Z,0.00
2019-03-29T03:25:15.124Z,0.00
2019-03-29T03:26:15.110Z,0.00
2019-03-29T03:27:15.164Z,0.00
2019-03-29T03:28:15.088Z,0.00
2019-03-29T03:29:15.075Z,0.00
2019-03-29T03:30:15.077Z,0.00
2019-03-29T03:31:15.049Z,0.00
2019-03-29T03:32:15.119Z,0.00
2019-03-29T03:33:15.050Z,0.00
2019-03-29T03:34:15.022Z,0.00
2019-03-29T03:35:15.018Z,0.00
2019-03-29T03:36:14.997Z,0.00
2019-03-29T03:37:14.986Z,0.00
2019-03-29T03:38:15.067Z,0.00
2019-03-29T03:39:30.841Z,0.00
2019-03-29T03:40:15.950Z,0.00
2019-03-29T03:41:14.942Z,0.00
2019-03-29T03:42:14.930Z,0.00
2019-03-29T03:43:14.915Z,0.00
2019-03-29T03:44:14.980Z,0.00
2019-03-29T03:45:14.900Z,0.00
2019-03-29T03:46:14.883Z,0.00
2019-03-29T03:47:14.975Z,0.00
2019-03-29T03:48:14.915Z,0.00
2019-03-29T03:49:14.905Z,0.00
2019-03-29T03:50:14.899Z,0.00
2019-03-29T03:51:14.837Z,0.00
2019-03-29T03:52:14.828Z,0.00
2019-03-29T03:53:14.807Z,0.00
2019-03-29T03:54:14.799Z,0.00
2019-03-29T03:55:14.840Z,0.00
2019-03-29T03:56:14.791Z,0.00
2019-03-29T03:57:14.769Z,0.00
2019-03-29T03:58:14.775Z,0.00
2019-03-29T03:59:14.744Z,0.00
2019-03-29T04:00:14.749Z,0.00
2019-03-29T04:01:14.793Z,0.00
2019-03-29T04:02:14.715Z,0.00
2019-03-29T04:03:14.710Z,0.00
2019-03-29T04:04:14.681Z,0.00
2019-03-29T04:05:14.670Z,0.00
2019-03-29T04:06:14.753Z,0.00
2019-03-29T04:07:14.653Z,0.00
2019-03-29T04:08:14.640Z,0.00
2019-03-29T04:09:14.630Z,0.00
2019-03-29T04:10:14.629Z,0.00
2019-03-29T04:11:14.604Z,0.00
2019-03-29T04:12:14.614Z,0.00
2019-03-29T04:13:14.591Z,0.00
2019-03-29T04:14:14.570Z,0.00
2019-03-29T04:15:14.565Z,0.00
2019-03-29T04:16:14.546Z,0.00
2019-03-29T04:17:14.579Z,0.00
2019-03-29T04:18:16.122Z,0.00
2019-03-29T04:19:14.515Z,0.00
2019-03-29T04:20:14.505Z,0.00
2019-03-29T04:21:14.495Z,0.00
2019-03-29T04:22:14.505Z,0.00
2019-03-29T04:23:14.474Z,0.00
2019-03-29T04:24:14.462Z,0.00
2019-03-29T04:25:14.462Z,0.00
2019-03-29T04:26:14.438Z,4.00
2019-03-29T04:27:14.429Z,4.00
2019-03-29T04:28:14.468Z,0.00
2019-03-29T04:29:14.403Z,4.00
2019-03-29T04:30:14.395Z,4.00
2019-03-29T04:31:14.384Z,4.00
2019-03-29T04:32:14.369Z,4.00
2019-03-29T04:33:14.411Z,4.00
2019-03-29T04:34:14.353Z,8.00
2019-03-29T04:35:14.367Z,4.00
2019-03-29T04:36:14.322Z,8.00
2019-03-29T04:37:14.406Z,12.00
2019-03-29T04:38:14.356Z,12.00
2019-03-29T04:39:14.291Z,16.00
2019-03-29T04:40:14.283Z,16.00
2019-03-29T04:41:14.321Z,16.00
2019-03-29T04:42:14.261Z,24.00
2019-03-29T04:43:14.272Z,28.00
2019-03-29T04:44:14.247Z,28.00
2019-03-29T04:45:14.242Z,28.00
2019-03-29T04:46:14.213Z,32.00
2019-03-29T04:47:14.206Z,36.00
2019-03-29T04:48:14.265Z,40.00
2019-03-29T04:49:14.185Z,44.00
2019-03-29T04:50:14.168Z,48.00
2019-03-29T04:51:14.159Z,56.00
2019-03-29T04:52:14.150Z,64.00
2019-03-29T04:53:14.134Z,68.00
2019-03-29T04:54:14.175Z,76.00
2019-03-29T04:55:14.116Z,76.00
2019-03-29T04:56:14.116Z,84.00
2019-03-29T04:57:14.144Z,96.00
2019-03-29T04:58:14.083Z,104.00
2019-03-29T04:59:14.075Z,120.00
2019-03-29T05:00:14.061Z,132.00
2019-03-29T05:01:17.245Z,132.00
2019-03-29T05:02:14.130Z,136.00
2019-03-29T05:03:14.098Z,144.00
2019-03-29T05:04:14.016Z,156.00
2019-03-29T05:05:14.023Z,160.00
2019-03-29T05:06:14.046Z,156.00
2019-03-29T05:07:13.982Z,168.00
2019-03-29T05:08:14.022Z,180.00
2019-03-29T05:09:13.959Z,192.00
2019-03-29T05:10:21.002Z,204.00
2019-03-29T05:11:14.937Z,208.00
2019-03-29T05:12:13.922Z,212.00
2019-03-29T05:13:13.972Z,220.00
2019-03-29T05:14:13.911Z,260.00
2019-03-29T05:15:13.896Z,296.00
2019-03-29T05:16:13.931Z,320.00
2019-03-29T05:17:13.866Z,332.00
2019-03-29T05:18:13.859Z,364.00
2019-03-29T05:19:13.849Z,380.00
2019-03-29T05:20:13.834Z,376.00
2019-03-29T05:21:13.836Z,428.00
2019-03-29T05:22:13.854Z,412.00
2019-03-29T05:23:13.807Z,400.00
2019-03-29T05:24:13.797Z,420.00
2019-03-29T05:25:13.782Z,440.00
2019-03-29T05:26:13.768Z,480.00
2019-03-29T05:27:13.812Z,488.00
2019-03-29T05:28:13.750Z,492.00
2019-03-29T05:29:15.563Z,524.00
2019-03-29T05:30:13.730Z,532.00
2019-03-29T05:31:13.720Z,584.00
2019-03-29T05:32:13.704Z,600.00
2019-03-29T05:33:14.595Z,584.00
2019-03-29T05:34:13.688Z,564.00
2019-03-29T05:35:13.720Z,544.00
2019-03-29T05:36:13.655Z,568.00
2019-03-29T05:37:13.644Z,552.00
2019-03-29T05:38:13.729Z,536.00
2019-03-29T05:39:13.642Z,576.00
2019-03-29T05:40:14.608Z,592.00
2019-03-29T05:41:13.609Z,604.00
2019-03-29T05:42:13.590Z,620.00
2019-03-29T05:43:13.578Z,656.00
2019-03-29T05:44:13.618Z,672.00
2019-03-29T05:45:13.556Z,740.00
2019-03-29T05:46:13.550Z,792.00
2019-03-29T05:47:13.535Z,824.00
2019-03-29T05:48:13.575Z,836.00
2019-03-29T05:49:13.563Z,880.00
2019-03-29T05:50:13.497Z,896.00
2019-03-29T05:51:13.490Z,928.00
2019-03-29T05:52:13.477Z,928.00
2019-03-29T05:53:13.464Z,908.00
2019-03-29T05:54:13.527Z,928.00
2019-03-29T05:55:13.447Z,916.00
2019-03-29T05:56:13.430Z,960.00
2019-03-29T05:57:13.426Z,956.00
2019-03-29T05:58:13.415Z,964.00
2019-03-29T05:59:13.407Z,944.00
2019-03-29T06:00:13.460Z,940.00
2019-03-29T06:01:13.376Z,972.00
2019-03-29T06:02:13.369Z,1052.00
2019-03-29T06:03:13.390Z,1136.00
2019-03-29T06:04:13.346Z,1148.00
2019-03-29T06:05:13.354Z,1180.00
2019-03-29T06:06:13.328Z,1196.00
2019-03-29T06:07:13.307Z,1192.00
2019-03-29T06:08:13.296Z,1164.00
2019-03-29T06:09:13.287Z,1236.00
2019-03-29T06:10:13.351Z,1308.00
2019-03-29T06:11:13.277Z,1268.00
2019-03-29T06:12:13.253Z,1252.00
2019-03-29T06:13:13.240Z,1340.00
2019-03-29T06:14:13.233Z,1356.00
2019-03-29T06:15:13.218Z,1316.00
2019-03-29T06:16:13.246Z,1252.00
2019-03-29T06:17:13.201Z,1240.00
2019-03-29T06:18:13.191Z,1252.00
2019-03-29T06:19:13.178Z,1236.00
2019-03-29T06:20:13.170Z,1212.00
2019-03-29T06:21:13.167Z,1168.00
2019-03-29T06:22:14.108Z,1176.00
2019-03-29T06:23:13.131Z,1176.00
2019-03-29T06:24:13.134Z,1144.00
2019-03-29T06:25:13.113Z,1092.00
2019-03-29T06:26:13.098Z,1128.00
2019-03-29T06:27:13.139Z,1176.00
2019-03-29T06:28:13.075Z,1192.00
2019-03-29T06:29:13.064Z,1372.00
2019-03-29T06:30:13.056Z,1520.00
2019-03-29T06:31:13.045Z,1552.00
2019-03-29T06:32:13.083Z,1700.00
2019-03-29T06:33:13.022Z,1780.00
2019-03-29T06:34:13.010Z,1792.00
2019-03-29T06:35:12.997Z,1776.00
2019-03-29T06:36:12.986Z,1716.00
2019-03-29T06:37:12.981Z,1668.00
2019-03-29T06:38:13.016Z,1672.00
2019-03-29T06:39:12.952Z,1636.00
2019-03-29T06:40:12.945Z,1580.00
2019-03-29T06:41:12.929Z,1520.00
2019-03-29T06:42:12.917Z,1528.00
2019-03-29T06:43:12.907Z,1516.00
2019-03-29T06:44:12.948Z,1480.00
2019-03-29T06:45:12.889Z,1408.00
2019-03-29T06:46:12.882Z,1372.00
2019-03-29T06:47:12.868Z,1452.00
2019-03-29T06:48:12.859Z,1588.00
2019-03-29T06:49:12.844Z,1696.00
2019-03-29T06:50:14.263Z,1712.00
2019-03-29T06:51:12.818Z,1668.00
2019-03-29T06:52:12.809Z,1640.00
2019-03-29T06:53:12.802Z,1636.00
2019-03-29T06:54:12.839Z,1768.00
2019-03-29T06:55:12.780Z,1864.00
2019-03-29T06:56:12.773Z,1952.00
2019-03-29T06:57:12.755Z,1980.00
2019-03-29T06:58:12.739Z,2000.00
2019-03-29T06:59:12.863Z,2044.00
2019-03-29T07:00:12.735Z,2032.00
2019-03-29T07:01:12.708Z,2092.00
2019-03-29T07:02:12.701Z,2184.00
2019-03-29T07:03:12.691Z,2168.00
2019-03-29T07:04:12.729Z,2188.00
2019-03-29T07:05:12.667Z,2196.00
2019-03-29T07:06:12.655Z,2224.00
2019-03-29T07:07:12.696Z,2264.00
2019-03-29T07:08:12.630Z,2264.00
2019-03-29T07:09:12.677Z,2280.00
2019-03-29T07:10:12.608Z,2264.00
2019-03-29T07:11:17.604Z,2300.00
2019-03-29T07:12:13.612Z,2248.00
2019-03-29T07:13:12.580Z,2200.00
2019-03-29T07:14:12.615Z,2156.00
2019-03-29T07:15:12.552Z,2140.00
2019-03-29T07:16:12.546Z,2028.00
2019-03-29T07:17:12.536Z,2000.00
2019-03-29T07:18:12.526Z,1976.00
2019-03-29T07:19:12.576Z,1984.00
2019-03-29T07:20:12.498Z,1980.00
2019-03-29T07:21:21.451Z,2012.00
2019-03-29T07:22:13.477Z,2096.00
2019-03-29T07:23:12.469Z,2160.00
2019-03-29T07:24:12.455Z,2224.00
2019-03-29T07:25:12.481Z,2264.00
2019-03-29T07:26:12.430Z,2256.00
2019-03-29T07:27:12.419Z,2216.00
2019-03-29T07:28:12.414Z,2112.00
2019-03-29T07:29:12.404Z,2120.00
2019-03-29T07:30:12.442Z,2128.00
2019-03-29T07:31:12.382Z,2140.00
2019-03-29T07:32:12.371Z,2196.00
2019-03-29T07:33:12.355Z,2196.00
2019-03-29T07:34:12.342Z,2224.00
2019-03-29T07:35:12.406Z,2204.00
2019-03-29T07:36:12.325Z,2228.00
2019-03-29T07:37:12.310Z,2196.00
2019-03-29T07:38:12.298Z,2192.00
2019-03-29T07:39:12.287Z,2200.00
2019-03-29T07:40:12.278Z,2208.00
2019-03-29T07:41:12.321Z,2252.00
2019-03-29T07:42:12.265Z,2252.00
2019-03-29T07:43:12.243Z,2284.00
2019-03-29T07:44:12.260Z,2332.00
2019-03-29T07:45:12.222Z,2368.00
2019-03-29T07:46:12.216Z,2416.00
2019-03-29T07:47:12.257Z,2408.00
2019-03-29T07:48:12.197Z,2396.00
2019-03-29T07:49:12.180Z,2396.00
2019-03-29T07:50:12.166Z,2420.00
2019-03-29T07:51:12.157Z,2452.00
2019-03-29T07:52:12.221Z,2436.00
2019-03-29T07:53:12.133Z,2456.00
2019-03-29T07:54:12.123Z,2500.00
2019-03-29T07:55:12.115Z,2612.00
2019-03-29T07:56:12.103Z,2772.00
2019-03-29T07:57:12.093Z,2936.00
2019-03-29T07:58:12.149Z,3096.00
2019-03-29T07:59:12.065Z,3120.00
2019-03-29T08:00:12.083Z,3180.00
2019-03-29T08:01:12.042Z,3200.00
2019-03-29T08:02:12.033Z,3180.00
2019-03-29T08:03:12.027Z,3160.00
2019-03-29T08:04:12.056Z,3028.00
2019-03-29T08:05:12.003Z,2956.00
2019-03-29T08:06:12.142Z,2924.00
2019-03-29T08:07:11.979Z,2840.00
2019-03-29T08:08:23.125Z,2784.00
2019-03-29T08:09:22.419Z,2788.00
2019-03-29T08:10:23.998Z,2804.00
2019-03-29T08:11:25.488Z,2852.00
2019-03-29T08:12:12.922Z,2896.00
2019-03-29T08:13:11.913Z,3140.00
2019-03-29T08:14:14.820Z,3304.00
2019-03-29T08:15:11.887Z,3252.00
2019-03-29T08:16:11.928Z,2916.00
2019-03-29T08:17:11.869Z,3228.00
2019-03-29T08:18:11.855Z,3388.00
2019-03-29T08:19:11.911Z,3296.00
2019-03-29T08:20:38.107Z,3332.00
2019-03-29T08:21:12.826Z,3444.00
2019-03-29T08:22:11.808Z,3480.00
2019-03-29T08:23:11.801Z,3460.00
2019-03-29T08:24:11.861Z,3376.00
2019-03-29T08:25:11.805Z,3316.00
2019-03-29T08:26:11.769Z,3344.00
2019-03-29T08:27:11.761Z,3304.00
2019-03-29T08:28:11.746Z,3328.00
2019-03-29T08:29:11.738Z,3352.00
2019-03-29T08:30:11.723Z,3344.00
2019-03-29T08:31:11.761Z,3308.00
2019-03-29T08:32:11.708Z,3240.00
2019-03-29T08:33:11.692Z,3284.00
2019-03-29T08:34:11.680Z,3320.00
2019-03-29T08:35:11.665Z,3288.00
2019-03-29T08:36:11.697Z,3276.00
2019-03-29T08:37:11.642Z,3408.00
2019-03-29T08:38:11.629Z,3324.00
2019-03-29T08:39:11.624Z,3140.00
2019-03-29T08:40:11.612Z,3084.00
2019-03-29T08:41:11.609Z,3104.00
2019-03-29T08:42:11.585Z,3272.00
2019-03-29T08:43:11.583Z,3380.00
2019-03-29T08:44:12.044Z,3252.00
2019-03-29T08:45:11.556Z,3248.00
2019-03-29T08:46:11.595Z,3324.00
2019-03-29T08:47:11.534Z,3196.00
2019-03-29T08:48:11.522Z,3128.00
2019-03-29T08:49:11.515Z,3200.00
2019-03-29T08:50:11.499Z,3208.00
2019-03-29T08:51:11.487Z,3048.00
2019-03-29T08:52:11.548Z,3092.00
2019-03-29T08:53:11.466Z,3292.00
2019-03-29T08:54:11.456Z,3356.00
2019-03-29T08:55:11.444Z,3096.00
2019-03-29T08:56:11.428Z,3028.00
2019-03-29T08:57:11.418Z,3128.00
2019-03-29T08:58:11.426Z,2972.00
2019-03-29T08:59:11.399Z,3000.00
2019-03-29T09:00:11.392Z,3228.00
2019-03-29T09:01:11.374Z,3348.00
2019-03-29T09:02:11.362Z,3472.00
2019-03-29T09:03:11.445Z,3548.00
2019-03-29T09:04:11.346Z,3616.00
2019-03-29T09:05:11.331Z,3508.00
2019-03-29T09:06:11.318Z,3560.00
2019-03-29T09:07:11.309Z,3608.00
2019-03-29T09:08:11.296Z,3460.00
2019-03-29T09:09:12.106Z,3532.00
2019-03-29T09:10:11.277Z,3788.00
2019-03-29T09:11:11.267Z,3620.00
2019-03-29T09:12:14.670Z,3436.00
2019-03-29T09:13:11.240Z,3428.00
2019-03-29T09:14:11.281Z,3320.00
2019-03-29T09:15:11.223Z,3484.00
2019-03-29T09:16:11.209Z,3640.00
2019-03-29T09:17:11.199Z,3528.00
2019-03-29T09:18:11.184Z,3444.00
2019-03-29T09:19:11.172Z,3396.00
2019-03-29T09:20:11.216Z,3384.00
2019-03-29T09:21:11.156Z,3548.00
2019-03-29T09:22:11.143Z,3628.00
2019-03-29T09:23:11.133Z,3668.00
2019-03-29T09:24:21.632Z,3632.00
2019-03-29T09:25:12.162Z,3608.00
2019-03-29T09:26:11.093Z,3624.00
2019-03-29T09:27:11.087Z,3644.00
2019-03-29T09:28:11.132Z,3584.00
2019-03-29T09:29:11.067Z,3624.00
2019-03-29T09:30:11.055Z,3644.00
2019-03-29T09:31:11.091Z,3668.00
2019-03-29T09:32:11.032Z,3656.00
2019-03-29T09:33:11.017Z,3324.00
2019-03-29T09:34:11.007Z,3428.00
2019-03-29T09:35:10.998Z,3564.00
2019-03-29T09:36:11.037Z,3624.00
2019-03-29T09:37:10.976Z,3660.00
2019-03-29T09:38:10.960Z,3736.00
2019-03-29T09:39:10.951Z,3824.00
2019-03-29T09:40:13.707Z,3796.00
2019-03-29T09:41:10.932Z,3844.00
2019-03-29T09:42:10.957Z,3872.00
2019-03-29T09:43:10.963Z,3836.00
2019-03-29T09:44:10.899Z,3832.00
2019-03-29T09:45:10.886Z,3828.00
2019-03-29T09:46:10.873Z,3908.00
2019-03-29T09:47:10.864Z,3912.00
2019-03-29T09:48:10.904Z,3888.00
2019-03-29T09:49:10.842Z,3880.00
2019-03-29T09:50:10.965Z,3996.00
2019-03-29T09:51:10.820Z,4036.00
2019-03-29T09:52:10.804Z,4072.00
2019-03-29T09:53:10.867Z,4084.00
2019-03-29T09:54:10.786Z,4036.00
2019-03-29T09:55:10.777Z,4020.00
2019-03-29T09:56:10.897Z,3956.00
2019-03-29T09:57:15.415Z,3788.00
2019-03-29T09:58:10.741Z,3808.00
2019-03-29T09:59:10.734Z,4016.00
2019-03-29T10:00:19.252Z,4064.00
2019-03-29T10:01:11.802Z,4088.00
2019-03-29T10:02:10.696Z,4084.00
2019-03-29T10:03:10.688Z,4080.00
2019-03-29T10:04:10.670Z,4096.00
2019-03-29T10:05:10.660Z,4192.00
2019-03-29T10:06:10.747Z,4316.00
2019-03-29T10:07:10.643Z,4412.00
2019-03-29T10:08:18.179Z,4332.00
2019-03-29T10:09:10.654Z,4248.00
2019-03-29T10:10:10.658Z,4360.00
2019-03-29T10:11:10.601Z,4484.00
2019-03-29T10:12:10.635Z,4484.00
2019-03-29T10:13:10.577Z,4464.00
2019-03-29T10:14:10.566Z,4460.00
2019-03-29T10:15:10.602Z,4408.00
2019-03-29T10:16:10.553Z,4332.00
2019-03-29T10:17:10.537Z,4296.00
2019-03-29T10:18:10.521Z,4472.00
2019-03-29T10:19:10.518Z,4772.00
2019-03-29T10:20:10.496Z,4920.00
2019-03-29T10:21:10.748Z,4900.00
2019-03-29T10:22:10.745Z,4916.00
2019-03-29T10:23:10.530Z,5052.00
2019-03-29T10:24:10.513Z,5248.00
2019-03-29T10:25:19.192Z,5212.00
2019-03-29T10:26:11.430Z,5084.00
2019-03-29T10:27:10.418Z,5248.00
2019-03-29T10:28:10.413Z,5620.00
2019-03-29T10:29:10.449Z,5756.00
2019-03-29T10:30:10.389Z,5632.00
2019-03-29T10:31:10.383Z,5628.00
2019-03-29T10:32:10.372Z,5944.00
2019-03-29T10:33:10.357Z,6512.00
2019-03-29T10:34:10.397Z,6828.00
2019-03-29T10:35:10.339Z,7156.00
2019-03-29T10:36:10.320Z,7220.00
2019-03-29T10:37:10.381Z,7476.00
2019-03-29T10:38:10.313Z,7208.00
2019-03-29T10:39:10.295Z,7176.00
2019-03-29T10:40:10.299Z,7456.00
2019-03-29T10:41:10.262Z,7608.00
2019-03-29T10:42:10.255Z,7560.00
2019-03-29T10:43:10.295Z,7420.00
2019-03-29T10:44:10.229Z,7348.00
2019-03-29T10:45:10.238Z,7708.00
2019-03-29T10:46:10.212Z,7852.00
2019-03-29T10:47:10.200Z,7824.00
2019-03-29T10:48:10.241Z,7828.00
2019-03-29T10:49:10.231Z,8040.00
2019-03-29T10:50:10.162Z,8356.00
2019-03-29T10:51:10.149Z,8540.00
2019-03-29T10:52:10.141Z,8364.00
2019-03-29T10:53:10.131Z,7960.00
2019-03-29T10:54:10.159Z,7956.00
2019-03-29T10:55:10.109Z,8008.00
2019-03-29T10:56:10.107Z,7936.00
2019-03-29T10:57:10.081Z,8100.00
2019-03-29T10:58:10.210Z,8352.00
2019-03-29T10:59:10.113Z,7760.00
2019-03-29T11:00:10.058Z,7056.00
2019-03-29T11:01:10.037Z,6896.00
2019-03-29T11:02:10.039Z,7576.00
2019-03-29T11:03:10.027Z,7956.00
2019-03-29T11:04:10.059Z,8164.00
2019-03-29T11:05:10.036Z,8720.00
2019-03-29T11:06:09.992Z,9268.00
2019-03-29T11:07:09.980Z,9768.00
2019-03-29T11:08:11.993Z,9852.00
2019-03-29T11:09:09.959Z,9388.00
2019-03-29T11:10:09.942Z,8832.00
2019-03-29T11:11:10.711Z,9156.00
2019-03-29T11:12:10.006Z,9044.00
2019-03-29T11:13:14.184Z,8180.00
2019-03-29T11:14:09.955Z,7040.00
2019-03-29T11:15:09.885Z,6300.00
2019-03-29T11:16:09.874Z,5672.00
2019-03-29T11:17:09.868Z,5608.00
2019-03-29T11:18:09.865Z,5440.00
2019-03-29T11:19:09.844Z,5748.00
2019-03-29T11:20:09.848Z,5772.00
2019-03-29T11:21:09.821Z,5472.00
2019-03-29T11:22:09.864Z,5132.00
2019-03-29T11:23:09.803Z,4936.00
2019-03-29T11:24:09.792Z,4812.00
2019-03-29T11:25:09.783Z,4632.00
2019-03-29T11:26:09.766Z,4504.00
2019-03-29T11:27:09.846Z,3972.00
2019-03-29T11:28:09.760Z,3484.00
2019-03-29T11:29:09.734Z,3284.00
2019-03-29T11:30:10.705Z,3440.00
2019-03-29T11:31:09.710Z,3720.00
2019-03-29T11:32:09.708Z,3716.00
2019-03-29T11:33:09.723Z,3800.00
2019-03-29T11:34:09.684Z,3932.00
2019-03-29T11:35:09.667Z,3872.00
2019-03-29T11:36:09.707Z,3736.00
2019-03-29T11:37:09.640Z,3532.00
2019-03-29T11:38:09.725Z,3288.00
2019-03-29T11:39:09.618Z,3180.00
2019-03-29T11:40:09.634Z,3416.00
2019-03-29T11:41:09.595Z,3844.00
2019-03-29T11:42:09.583Z,4216.00
2019-03-29T11:43:09.573Z,4584.00
2019-03-29T11:44:09.615Z,5176.00
2019-03-29T11:45:09.552Z,5408.00
2019-03-29T11:46:09.545Z,5608.00
2019-03-29T11:47:09.527Z,5736.00
2019-03-29T11:48:09.843Z,6072.00
2019-03-29T11:49:09.532Z,6328.00
2019-03-29T11:50:09.496Z,6488.00
2019-03-29T11:51:19.251Z,6692.00
2019-03-29T11:52:10.468Z,6936.00
2019-03-29T11:53:09.469Z,6756.00
2019-03-29T11:54:09.455Z,6504.00
2019-03-29T11:55:09.489Z,6192.00
2019-03-29T11:56:09.433Z,5944.00
2019-03-29T11:57:09.418Z,5920.00
2019-03-29T11:58:09.404Z,5896.00
2019-03-29T11:59:09.399Z,5848.00
2019-03-29T12:00:09.389Z,5672.00
2019-03-29T12:01:09.423Z,5380.00
2019-03-29T12:02:09.362Z,5256.00
2019-03-29T12:03:09.861Z,5140.00
2019-03-29T12:04:09.338Z,4980.00
2019-03-29T12:05:09.325Z,4764.00
2019-03-29T12:06:09.319Z,4540.00
2019-03-29T12:07:09.370Z,4348.00
2019-03-29T12:08:09.298Z,4252.00
2019-03-29T12:09:09.286Z,4664.00
2019-03-29T12:10:09.277Z,4912.00
2019-03-29T12:11:09.265Z,5184.00
2019-03-29T12:12:09.245Z,5548.00
2019-03-29T12:13:09.307Z,5728.00
2019-03-29T12:14:09.277Z,5844.00
2019-03-29T12:15:09.220Z,6236.00
2019-03-29T12:16:09.200Z,6716.00
2019-03-29T12:17:09.201Z,6948.00
2019-03-29T12:18:09.252Z,6592.00
2019-03-29T12:19:09.174Z,6392.00
2019-03-29T12:20:09.160Z,6320.00
2019-03-29T12:21:09.148Z,6352.00
2019-03-29T12:22:09.137Z,6360.00
2019-03-29T12:23:09.124Z,6256.00
2019-03-29T12:24:09.165Z,6028.00
2019-03-29T12:25:09.101Z,5764.00
2019-03-29T12:26:09.092Z,5408.00
2019-03-29T12:27:09.083Z,5088.00
2019-03-29T12:28:09.071Z,4440.00
2019-03-29T12:29:09.064Z,3940.00
2019-03-29T12:30:09.044Z,3424.00
2019-03-29T12:31:09.030Z,3068.00
2019-03-29T12:32:09.019Z,3048.00
2019-03-29T12:33:09.066Z,3248.00
2019-03-29T12:34:09.080Z,3444.00